sensor_id;sensor_type;location;lat;lon;timestamp;pressure;altitude;pressure_sealevel;temperature;humidity
72096;BME280;59968;51.084;16.748;2022-08-04T00:00:10;100285.17;;;21.15;54.81
72096;BME280;59968;51.084;16.748;2022-08-04T00:03:25;100286.80;;;21.10;55.05
72096;BME280;59968;51.084;16.748;2022-08-04T00:06:10;100282.02;;;21.04;55.16
72096;BME280;59968;51.084;16.748;2022-08-04T00:08:44;100285.02;;;21.01;55.32
72096;BME280;59968;51.084;16.748;2022-08-04T00:11:19;100283.33;;;20.96;55.46
72096;BME280;59968;51.084;16.748;2022-08-04T00:14:17;100278.20;;;20.93;55.65
72096;BME280;59968;51.084;16.748;2022-08-04T00:16:46;100277.81;;;20.88;55.72
72096;BME280;59968;51.084;16.748;2022-08-04T00:19:29;100281.59;;;20.85;55.99
72096;BME280;59968;51.084;16.748;2022-08-04T00:22:03;100281.25;;;20.82;56.09
72096;BME280;59968;51.084;16.748;2022-08-04T00:24:36;100283.52;;;20.81;56.17
72096;BME280;59968;51.084;16.748;2022-08-04T00:27:06;100277.47;;;20.74;56.27
72096;BME280;59968;51.084;16.748;2022-08-04T00:29:37;100287.23;;;20.76;56.41
72096;BME280;59968;51.084;16.748;2022-08-04T00:32:07;100287.21;;;20.72;56.74
72096;BME280;59968;51.084;16.748;2022-08-04T00:34:36;100289.15;;;20.70;56.77
72096;BME280;59968;51.084;16.748;2022-08-04T00:37:05;100289.70;;;20.66;56.88
72096;BME280;59968;51.084;16.748;2022-08-04T00:39:34;100291.65;;;20.63;56.92
72096;BME280;59968;51.084;16.748;2022-08-04T00:59:30;100289.77;;;20.34;58.24
72096;BME280;59968;51.084;16.748;2022-08-04T01:05:19;100292.05;;;20.28;58.62
72096;BME280;59968;51.084;16.748;2022-08-04T01:16:09;100305.55;;;20.20;59.07
72096;BME280;59968;51.084;16.748;2022-08-04T01:30:06;100317.09;;;19.97;60.47
72096;BME280;59968;51.084;16.748;2022-08-04T01:32:38;100320.42;;;19.94;60.58
72096;BME280;59968;51.084;16.748;2022-08-04T01:35:18;100318.13;;;19.90;60.62
72096;BME280;59968;51.084;16.748;2022-08-04T01:40:53;100321.45;;;19.81;60.75
72096;BME280;59968;51.084;16.748;2022-08-04T01:43:23;100319.17;;;19.79;60.73
72096;BME280;59968;51.084;16.748;2022-08-04T01:45:57;100318.58;;;19.78;60.95
72096;BME280;59968;51.084;16.748;2022-08-04T01:48:27;100320.84;;;19.76;60.77
72096;BME280;59968;51.084;16.748;2022-08-04T01:50:57;100315.64;;;19.73;60.75
72096;BME280;59968;51.084;16.748;2022-08-04T01:53:31;100316.58;;;19.73;60.71
72096;BME280;59968;51.084;16.748;2022-08-04T01:56:00;100316.83;;;19.69;60.92
72096;BME280;59968;51.084;16.748;2022-08-04T01:58:32;100317.90;;;19.68;61.03
72096;BME280;59968;51.084;16.748;2022-08-04T02:03:43;100310.37;;;19.62;61.31
72096;BME280;59968;51.084;16.748;2022-08-04T02:15:13;100302.39;;;19.36;62.14
72096;BME280;59968;51.084;16.748;2022-08-04T02:17:53;100303.79;;;19.35;62.20
72096;BME280;59968;51.084;16.748;2022-08-04T02:20:34;100306.73;;;19.35;62.42
72096;BME280;59968;51.084;16.748;2022-08-04T02:23:07;100307.31;;;19.35;62.50
72096;BME280;59968;51.084;16.748;2022-08-04T02:25:45;100303.67;;;19.37;62.56
72096;BME280;59968;51.084;16.748;2022-08-04T02:28:34;100304.00;;;19.37;62.50
72096;BME280;59968;51.084;16.748;2022-08-04T02:36:40;100297.88;;;19.33;62.44
72096;BME280;59968;51.084;16.748;2022-08-04T02:39:10;100296.02;;;19.31;62.71
72096;BME280;59968;51.084;16.748;2022-08-04T02:41:39;100292.27;;;19.27;62.95
72096;BME280;59968;51.084;16.748;2022-08-04T02:44:08;100285.12;;;19.21;62.79
72096;BME280;59968;51.084;16.748;2022-08-04T02:46:38;100286.67;;;19.19;62.85
72096;BME280;59968;51.084;16.748;2022-08-04T02:49:09;100278.00;;;19.12;63.01
72096;BME280;59968;51.084;16.748;2022-08-04T02:51:42;100282.69;;;19.12;63.07
72096;BME280;59968;51.084;16.748;2022-08-04T02:54:15;100283.22;;;19.12;63.21
72096;BME280;59968;51.084;16.748;2022-08-04T02:57:01;100283.00;;;19.12;63.35
72096;BME280;59968;51.084;16.748;2022-08-04T02:59:55;100280.92;;;19.09;63.60
72096;BME280;59968;51.084;16.748;2022-08-04T03:05:33;100286.23;;;19.08;63.64
72096;BME280;59968;51.084;16.748;2022-08-04T03:30:42;100300.49;;;18.94;64.36
72096;BME280;59968;51.084;16.748;2022-08-04T03:33:39;100301.45;;;18.94;64.46
72096;BME280;59968;51.084;16.748;2022-08-04T03:36:47;100302.66;;;18.94;64.28
72096;BME280;59968;51.084;16.748;2022-08-04T03:39:43;100295.24;;;18.86;64.19
72096;BME280;59968;51.084;16.748;2022-08-04T03:57:03;100302.04;;;18.99;64.47
72096;BME280;59968;51.084;16.748;2022-08-04T04:13:57;100303.27;;;19.18;64.55
72096;BME280;59968;51.084;16.748;2022-08-04T04:19:30;100302.25;;;19.21;64.79
72096;BME280;59968;51.084;16.748;2022-08-04T04:34:19;100308.29;;;19.40;64.63
72096;BME280;59968;51.084;16.748;2022-08-04T04:37:06;100310.11;;;19.48;64.50
72096;BME280;59968;51.084;16.748;2022-08-04T04:39:54;100309.08;;;19.55;64.56
72096;BME280;59968;51.084;16.748;2022-08-04T04:48:13;100312.36;;;19.75;64.32
72096;BME280;59968;51.084;16.748;2022-08-04T04:56:39;100310.90;;;19.93;63.74
72096;BME280;59968;51.084;16.748;2022-08-04T04:59:11;100315.76;;;20.02;63.86
72096;BME280;59968;51.084;16.748;2022-08-04T05:10:02;100307.84;;;20.35;63.47
72096;BME280;59968;51.084;16.748;2022-08-04T05:16:04;100306.98;;;20.56;63.02
72096;BME280;59968;51.084;16.748;2022-08-04T05:18:36;100308.26;;;20.65;62.70
72096;BME280;59968;51.084;16.748;2022-08-04T05:21:18;100310.91;;;20.78;62.62
72096;BME280;59968;51.084;16.748;2022-08-04T05:23:55;100312.36;;;20.92;62.61
72096;BME280;59968;51.084;16.748;2022-08-04T05:26:30;100310.27;;;21.04;62.53
72096;BME280;59968;51.084;16.748;2022-08-04T05:29:05;100306.66;;;21.20;62.31
72096;BME280;59968;51.084;16.748;2022-08-04T05:31:45;100308.66;;;21.37;61.75
72096;BME280;59968;51.084;16.748;2022-08-04T05:34:48;100305.19;;;21.53;61.49
72096;BME280;59968;51.084;16.748;2022-08-04T05:37:19;100306.48;;;21.71;61.31
72096;BME280;59968;51.084;16.748;2022-08-04T05:40:00;100307.91;;;21.86;61.02
72096;BME280;59968;51.084;16.748;2022-08-04T05:42:31;100309.46;;;22.03;60.90
72096;BME280;59968;51.084;16.748;2022-08-04T05:45:04;100307.14;;;22.17;60.56
72096;BME280;59968;51.084;16.748;2022-08-04T05:47:34;100311.73;;;22.34;60.36
72096;BME280;59968;51.084;16.748;2022-08-04T05:50:05;100310.81;;;22.50;59.94
72096;BME280;59968;51.084;16.748;2022-08-04T05:52:37;100310.53;;;22.67;59.90
72096;BME280;59968;51.084;16.748;2022-08-04T05:55:07;100312.20;;;22.81;59.29
72096;BME280;59968;51.084;16.748;2022-08-04T05:57:39;100313.32;;;22.96;59.20
72096;BME280;59968;51.084;16.748;2022-08-04T06:00:09;100317.86;;;23.12;59.21
72096;BME280;59968;51.084;16.748;2022-08-04T06:03:00;100318.41;;;23.30;58.49
72096;BME280;59968;51.084;16.748;2022-08-04T06:05:29;100318.23;;;23.44;58.58
72096;BME280;59968;51.084;16.748;2022-08-04T06:07:59;100322.37;;;23.58;58.45
72096;BME280;59968;51.084;16.748;2022-08-04T06:10:43;100312.88;;;23.70;57.88
72096;BME280;59968;51.084;16.748;2022-08-04T06:13:17;100323.61;;;23.90;57.50
72096;BME280;59968;51.084;16.748;2022-08-04T06:16:11;100304.46;;;23.95;56.97
72096;BME280;59968;51.084;16.748;2022-08-04T06:19:01;100319.41;;;24.21;56.48
72096;BME280;59968;51.084;16.748;2022-08-04T06:21:53;100322.69;;;24.36;56.04
72096;BME280;59968;51.084;16.748;2022-08-04T06:24:28;100319.61;;;24.52;55.48
72096;BME280;59968;51.084;16.748;2022-08-04T06:26:58;100322.46;;;24.66;54.54
72096;BME280;59968;51.084;16.748;2022-08-04T06:29:29;100321.23;;;24.79;54.52
72096;BME280;59968;51.084;16.748;2022-08-04T06:32:06;100323.13;;;24.93;53.88
72096;BME280;59968;51.084;16.748;2022-08-04T06:35:03;100324.13;;;25.09;53.08
72096;BME280;59968;51.084;16.748;2022-08-04T06:37:35;100324.29;;;25.22;52.66
72096;BME280;59968;51.084;16.748;2022-08-04T06:40:13;100324.27;;;25.35;52.54
72096;BME280;59968;51.084;16.748;2022-08-04T06:43:01;100322.26;;;25.53;52.10
72096;BME280;59968;51.084;16.748;2022-08-04T06:45:33;100319.96;;;25.68;51.94
72096;BME280;59968;51.084;16.748;2022-08-04T06:48:06;100319.91;;;25.86;51.96
72096;BME280;59968;51.084;16.748;2022-08-04T06:50:36;100317.24;;;26.00;51.46
72096;BME280;59968;51.084;16.748;2022-08-04T06:53:25;100316.38;;;26.26;51.09
72096;BME280;59968;51.084;16.748;2022-08-04T06:55:55;100316.90;;;26.45;50.31
72096;BME280;59968;51.084;16.748;2022-08-04T06:58:26;100317.87;;;26.61;49.69
72096;BME280;59968;51.084;16.748;2022-08-04T07:01:02;100313.36;;;26.75;49.06
72096;BME280;59968;51.084;16.748;2022-08-04T07:03:31;100316.44;;;26.93;47.96
72096;BME280;59968;51.084;16.748;2022-08-04T07:06:01;100313.21;;;27.08;48.08
72096;BME280;59968;51.084;16.748;2022-08-04T07:08:34;100310.27;;;27.24;48.27
72096;BME280;59968;51.084;16.748;2022-08-04T07:11:04;100319.27;;;27.37;46.99
72096;BME280;59968;51.084;16.748;2022-08-04T07:13:34;100320.35;;;27.51;46.42
72096;BME280;59968;51.084;16.748;2022-08-04T07:16:13;100320.00;;;27.65;46.27
72096;BME280;59968;51.084;16.748;2022-08-04T07:18:44;100320.52;;;27.79;45.98
72096;BME280;59968;51.084;16.748;2022-08-04T07:21:21;100317.71;;;27.92;45.03
72096;BME280;59968;51.084;16.748;2022-08-04T07:23:50;100316.80;;;28.06;45.37
72096;BME280;59968;51.084;16.748;2022-08-04T07:26:26;100312.98;;;28.17;44.62
72096;BME280;59968;51.084;16.748;2022-08-04T07:28:56;100317.05;;;28.33;45.08
72096;BME280;59968;51.084;16.748;2022-08-04T07:31:28;100319.14;;;28.46;44.74
72096;BME280;59968;51.084;16.748;2022-08-04T07:34:08;100309.83;;;28.58;43.61
72096;BME280;59968;51.084;16.748;2022-08-04T07:36:53;100310.66;;;28.69;43.41
72096;BME280;59968;51.084;16.748;2022-08-04T07:39:27;100307.71;;;28.79;43.02
72096;BME280;59968;51.084;16.748;2022-08-04T07:42:19;100308.52;;;28.91;42.73
72096;BME280;59968;51.084;16.748;2022-08-04T07:44:49;100307.98;;;29.00;42.59
72096;BME280;59968;51.084;16.748;2022-08-04T07:47:18;100307.06;;;29.10;42.32
72096;BME280;59968;51.084;16.748;2022-08-04T07:49:53;100301.90;;;29.15;41.80
72096;BME280;59968;51.084;16.748;2022-08-04T07:52:25;100305.99;;;29.25;41.73
72096;BME280;59968;51.084;16.748;2022-08-04T07:54:57;100305.46;;;29.36;41.65
72096;BME280;59968;51.084;16.748;2022-08-04T07:57:26;100303.84;;;29.45;41.40
72096;BME280;59968;51.084;16.748;2022-08-04T08:00:10;100303.19;;;29.56;41.16
72096;BME280;59968;51.084;16.748;2022-08-04T08:02:48;100303.27;;;29.67;41.16
72096;BME280;59968;51.084;16.748;2022-08-04T08:05:18;100299.81;;;29.75;40.67
72096;BME280;59968;51.084;16.748;2022-08-04T08:07:49;100295.40;;;29.82;40.60
72096;BME280;59968;51.084;16.748;2022-08-04T08:10:23;100296.08;;;29.92;41.25
72096;BME280;59968;51.084;16.748;2022-08-04T08:12:53;100296.71;;;30.05;41.34
72096;BME280;59968;51.084;16.748;2022-08-04T08:15:26;100297.39;;;30.14;40.72
72096;BME280;59968;51.084;16.748;2022-08-04T08:17:55;100299.04;;;30.20;40.69
72096;BME280;59968;51.084;16.748;2022-08-04T08:20:29;100299.98;;;30.29;40.78
72096;BME280;59968;51.084;16.748;2022-08-04T08:23:01;100302.17;;;30.36;40.53
72096;BME280;59968;51.084;16.748;2022-08-04T08:25:31;100303.06;;;30.41;39.55
72096;BME280;59968;51.084;16.748;2022-08-04T08:28:05;100301.88;;;30.47;40.01
72096;BME280;59968;51.084;16.748;2022-08-04T08:30:34;100294.59;;;30.52;39.48
72096;BME280;59968;51.084;16.748;2022-08-04T08:33:10;100298.70;;;30.62;39.84
72096;BME280;59968;51.084;16.748;2022-08-04T08:38:39;100295.40;;;30.73;38.87
72096;BME280;59968;51.084;16.748;2022-08-04T08:41:22;100295.64;;;30.77;38.71
72096;BME280;59968;51.084;16.748;2022-08-04T08:47:10;100300.11;;;30.91;38.19
72096;BME280;59968;51.084;16.748;2022-08-04T08:50:46;100297.82;;;30.97;38.09
72096;BME280;59968;51.084;16.748;2022-08-04T08:53:22;100300.48;;;31.04;37.77
72096;BME280;59968;51.084;16.748;2022-08-04T09:02:26;100294.15;;;31.23;37.27
72096;BME280;59968;51.084;16.748;2022-08-04T09:10:45;100295.59;;;31.43;36.45
72096;BME280;59968;51.084;16.748;2022-08-04T09:13:20;100292.04;;;31.48;36.40
72096;BME280;59968;51.084;16.748;2022-08-04T09:19:01;100291.70;;;31.58;35.17
72096;BME280;59968;51.084;16.748;2022-08-04T09:21:39;100289.58;;;31.60;35.20
72096;BME280;59968;51.084;16.748;2022-08-04T09:24:15;100292.91;;;31.66;35.50
72096;BME280;59968;51.084;16.748;2022-08-04T09:27:17;100290.90;;;31.74;35.28
72096;BME280;59968;51.084;16.748;2022-08-04T09:32:34;100288.46;;;31.82;34.09
72096;BME280;59968;51.084;16.748;2022-08-04T09:40:57;100289.95;;;31.86;33.67
72096;BME280;59968;51.084;16.748;2022-08-04T09:46:59;100282.33;;;31.94;33.75
72096;BME280;59968;51.084;16.748;2022-08-04T10:00:48;100277.39;;;32.17;33.38
72096;BME280;59968;51.084;16.748;2022-08-04T10:03:21;100279.96;;;32.20;32.30
72096;BME280;59968;51.084;16.748;2022-08-04T10:14:51;100271.73;;;32.36;33.12
72096;BME280;59968;51.084;16.748;2022-08-04T10:17:25;100271.39;;;32.44;32.41
72096;BME280;59968;51.084;16.748;2022-08-04T10:22:42;100268.11;;;32.49;31.41
72096;BME280;59968;51.084;16.748;2022-08-04T10:28:44;100265.21;;;32.51;31.61
72096;BME280;59968;51.084;16.748;2022-08-04T10:31:32;100263.89;;;32.56;31.68
72096;BME280;59968;51.084;16.748;2022-08-04T10:39:25;100255.02;;;32.74;32.05
72096;BME280;59968;51.084;16.748;2022-08-04T10:42:24;100251.45;;;32.83;32.05
72096;BME280;59968;51.084;16.748;2022-08-04T10:45:16;100247.86;;;32.89;32.15
72096;BME280;59968;51.084;16.748;2022-08-04T10:48:28;100244.98;;;32.95;32.73
72096;BME280;59968;51.084;16.748;2022-08-04T10:51:33;100246.02;;;33.01;32.50
72096;BME280;59968;51.084;16.748;2022-08-04T10:55:08;100238.82;;;33.09;31.54
72096;BME280;59968;51.084;16.748;2022-08-04T10:57:49;100241.80;;;33.11;31.22
72096;BME280;59968;51.084;16.748;2022-08-04T11:00:24;100237.42;;;33.11;31.14
72096;BME280;59968;51.084;16.748;2022-08-04T11:03:25;100234.77;;;33.12;31.26
72096;BME280;59968;51.084;16.748;2022-08-04T11:05:59;100237.91;;;33.12;31.40
72096;BME280;59968;51.084;16.748;2022-08-04T11:08:34;100231.66;;;33.14;31.44
72096;BME280;59968;51.084;16.748;2022-08-04T11:12:02;100233.64;;;33.18;31.23
72096;BME280;59968;51.084;16.748;2022-08-04T11:14:36;100227.08;;;33.20;30.57
72096;BME280;59968;51.084;16.748;2022-08-04T11:17:13;100227.86;;;33.15;30.48
72096;BME280;59968;51.084;16.748;2022-08-04T11:20:04;100225.51;;;33.13;30.83
72096;BME280;59968;51.084;16.748;2022-08-04T11:23:11;100222.42;;;33.16;30.95
72096;BME280;59968;51.084;16.748;2022-08-04T11:25:52;100219.69;;;33.17;31.18
72096;BME280;59968;51.084;16.748;2022-08-04T11:28:45;100215.69;;;33.18;31.14
72096;BME280;59968;51.084;16.748;2022-08-04T11:31:32;100223.54;;;33.16;30.90
72096;BME280;59968;51.084;16.748;2022-08-04T11:34:21;100222.85;;;33.17;30.84
72096;BME280;59968;51.084;16.748;2022-08-04T11:37:04;100229.40;;;33.20;31.29
72096;BME280;59968;51.084;16.748;2022-08-04T11:39:49;100229.05;;;33.24;30.79
72096;BME280;59968;51.084;16.748;2022-08-04T11:42:25;100228.02;;;33.29;31.07
72096;BME280;59968;51.084;16.748;2022-08-04T11:45:10;100227.11;;;33.32;31.10
72096;BME280;59968;51.084;16.748;2022-08-04T11:48:00;100226.83;;;33.33;30.77
72096;BME280;59968;51.084;16.748;2022-08-04T11:53:10;100225.36;;;33.36;30.66
72096;BME280;59968;51.084;16.748;2022-08-04T11:55:47;100225.73;;;33.38;30.71
72096;BME280;59968;51.084;16.748;2022-08-04T11:58:36;100225.02;;;33.40;30.68
72096;BME280;59968;51.084;16.748;2022-08-04T12:01:33;100221.79;;;33.43;30.66
72096;BME280;59968;51.084;16.748;2022-08-04T12:04:23;100214.75;;;33.46;30.46
72096;BME280;59968;51.084;16.748;2022-08-04T12:07:12;100211.60;;;33.49;30.62
72096;BME280;59968;51.084;16.748;2022-08-04T12:13:17;100208.61;;;33.52;30.58
72096;BME280;59968;51.084;16.748;2022-08-04T12:19:03;100206.66;;;33.59;30.35
72096;BME280;59968;51.084;16.748;2022-08-04T12:21:48;100207.73;;;33.61;29.63
72096;BME280;59968;51.084;16.748;2022-08-04T12:24:30;100207.19;;;33.61;29.78
72096;BME280;59968;51.084;16.748;2022-08-04T12:27:35;100205.21;;;33.62;30.24
72096;BME280;59968;51.084;16.748;2022-08-04T12:30:10;100202.93;;;33.69;30.47
72096;BME280;59968;51.084;16.748;2022-08-04T12:33:05;100198.40;;;33.72;29.45
72096;BME280;59968;51.084;16.748;2022-08-04T12:35:57;100193.42;;;33.72;29.77
72096;BME280;59968;51.084;16.748;2022-08-04T12:38:46;100193.00;;;33.74;29.57
72096;BME280;59968;51.084;16.748;2022-08-04T12:41:22;100196.69;;;33.77;29.67
72096;BME280;59968;51.084;16.748;2022-08-04T12:43:53;100192.38;;;33.77;28.98
72096;BME280;59968;51.084;16.748;2022-08-04T12:46:25;100188.92;;;33.77;29.47
72096;BME280;59968;51.084;16.748;2022-08-04T12:49:00;100188.67;;;33.79;29.38
72096;BME280;59968;51.084;16.748;2022-08-04T12:51:36;100187.77;;;33.80;29.22
72096;BME280;59968;51.084;16.748;2022-08-04T12:54:27;100181.95;;;33.80;29.86
72096;BME280;59968;51.084;16.748;2022-08-04T12:56:59;100182.78;;;33.83;29.61
72096;BME280;59968;51.084;16.748;2022-08-04T12:59:29;100178.88;;;33.87;29.01
72096;BME280;59968;51.084;16.748;2022-08-04T13:01:58;100178.83;;;33.85;29.11
72096;BME280;59968;51.084;16.748;2022-08-04T13:04:42;100173.66;;;33.84;29.20
72096;BME280;59968;51.084;16.748;2022-08-04T13:07:21;100167.96;;;33.80;29.43
72096;BME280;59968;51.084;16.748;2022-08-04T13:09:53;100173.92;;;33.85;29.70
72096;BME280;59968;51.084;16.748;2022-08-04T13:12:25;100174.71;;;33.90;29.99
72096;BME280;59968;51.084;16.748;2022-08-04T13:15:27;100172.64;;;33.96;29.52
72096;BME280;59968;51.084;16.748;2022-08-04T13:18:07;100171.51;;;34.00;29.13
72096;BME280;59968;51.084;16.748;2022-08-04T13:20:43;100167.98;;;33.98;29.77
72096;BME280;59968;51.084;16.748;2022-08-04T13:23:16;100165.20;;;33.97;29.42
72096;BME280;59968;51.084;16.748;2022-08-04T13:25:50;100167.73;;;34.00;29.34
72096;BME280;59968;51.084;16.748;2022-08-04T13:28:48;100165.23;;;34.02;29.15
72096;BME280;59968;51.084;16.748;2022-08-04T13:31:19;100161.23;;;34.02;29.21
72096;BME280;59968;51.084;16.748;2022-08-04T13:33:51;100152.94;;;34.01;29.32
72096;BME280;59968;51.084;16.748;2022-08-04T13:36:24;100154.17;;;34.02;28.69
72096;BME280;59968;51.084;16.748;2022-08-04T13:38:58;100152.77;;;34.05;29.14
72096;BME280;59968;51.084;16.748;2022-08-04T13:41:29;100150.77;;;34.05;28.94
72096;BME280;59968;51.084;16.748;2022-08-04T13:43:59;100151.61;;;34.01;28.81
72096;BME280;59968;51.084;16.748;2022-08-04T13:47:06;100145.74;;;33.94;29.24
72096;BME280;59968;51.084;16.748;2022-08-04T13:50:12;100145.91;;;33.98;29.69
72096;BME280;59968;51.084;16.748;2022-08-04T13:52:44;100142.60;;;34.00;29.82
72096;BME280;59968;51.084;16.748;2022-08-04T13:57:58;100137.79;;;34.07;29.72
72096;BME280;59968;51.084;16.748;2022-08-04T14:00:43;100130.67;;;34.12;29.71
72096;BME280;59968;51.084;16.748;2022-08-04T14:03:24;100121.44;;;34.12;29.25
72096;BME280;59968;51.084;16.748;2022-08-04T14:06:17;100121.13;;;34.08;29.12
72096;BME280;59968;51.084;16.748;2022-08-04T14:14:28;100120.52;;;33.97;29.59
72096;BME280;59968;51.084;16.748;2022-08-04T14:17:12;100117.86;;;33.98;29.50
72096;BME280;59968;51.084;16.748;2022-08-04T14:25:13;100115.42;;;33.95;28.43
72096;BME280;59968;51.084;16.748;2022-08-04T14:27:55;100120.52;;;33.93;28.33
72096;BME280;59968;51.084;16.748;2022-08-04T14:30:35;100115.91;;;33.93;28.80
72096;BME280;59968;51.084;16.748;2022-08-04T14:33:07;100111.54;;;33.97;29.26
72096;BME280;59968;51.084;16.748;2022-08-04T14:35:59;100110.58;;;34.02;29.70
72096;BME280;59968;51.084;16.748;2022-08-04T14:41:28;100110.10;;;34.01;29.25
72096;BME280;59968;51.084;16.748;2022-08-04T14:44:02;100110.02;;;34.01;28.75
72096;BME280;59968;51.084;16.748;2022-08-04T14:46:48;100099.58;;;33.99;28.88
72096;BME280;59968;51.084;16.748;2022-08-04T14:49:20;100100.59;;;33.99;28.89
72096;BME280;59968;51.084;16.748;2022-08-04T14:51:52;100098.90;;;34.02;29.47
72096;BME280;59968;51.084;16.748;2022-08-04T14:54:40;100095.60;;;34.08;29.40
72096;BME280;59968;51.084;16.748;2022-08-04T14:57:09;100094.23;;;34.15;29.46
72096;BME280;59968;51.084;16.748;2022-08-04T14:59:45;100093.65;;;34.20;29.72
72096;BME280;59968;51.084;16.748;2022-08-04T15:02:30;100095.56;;;34.27;29.17
72096;BME280;59968;51.084;16.748;2022-08-04T15:05:00;100091.98;;;34.29;28.91
72096;BME280;59968;51.084;16.748;2022-08-04T15:07:51;100086.88;;;34.31;28.54
72096;BME280;59968;51.084;16.748;2022-08-04T15:10:21;100086.02;;;34.31;28.51
72096;BME280;59968;51.084;16.748;2022-08-04T15:12:51;100085.96;;;34.31;28.56
72096;BME280;59968;51.084;16.748;2022-08-04T15:15:24;100084.44;;;34.29;28.63
72096;BME280;59968;51.084;16.748;2022-08-04T15:18:10;100081.58;;;34.28;29.07
72096;BME280;59968;51.084;16.748;2022-08-04T15:20:39;100073.73;;;34.25;28.88
72096;BME280;59968;51.084;16.748;2022-08-04T15:23:09;100071.40;;;34.23;28.61
72096;BME280;59968;51.084;16.748;2022-08-04T15:25:41;100072.17;;;34.20;28.27
72096;BME280;59968;51.084;16.748;2022-08-04T15:28:14;100068.56;;;34.16;28.43
72096;BME280;59968;51.084;16.748;2022-08-04T15:30:48;100059.49;;;34.07;28.17
72096;BME280;59968;51.084;16.748;2022-08-04T15:33:23;100066.77;;;34.07;28.41
72096;BME280;59968;51.084;16.748;2022-08-04T15:36:20;100064.50;;;34.02;28.95
72096;BME280;59968;51.084;16.748;2022-08-04T15:44:35;100064.05;;;33.81;28.27
72096;BME280;59968;51.084;16.748;2022-08-04T15:47:14;100063.54;;;33.76;28.56
72096;BME280;59968;51.084;16.748;2022-08-04T15:49:43;100062.70;;;33.75;28.55
72096;BME280;59968;51.084;16.748;2022-08-04T15:52:14;100057.27;;;33.74;28.44
72096;BME280;59968;51.084;16.748;2022-08-04T15:54:45;100053.84;;;33.72;27.91
72096;BME280;59968;51.084;16.748;2022-08-04T15:58:00;100049.06;;;33.69;27.95
72096;BME280;59968;51.084;16.748;2022-08-04T16:22:12;100048.23;;;33.32;27.46
72096;BME280;59968;51.084;16.748;2022-08-04T16:24:58;100053.14;;;33.26;27.66
72096;BME280;59968;51.084;16.748;2022-08-04T16:27:39;100046.77;;;33.22;28.05
72096;BME280;59968;51.084;16.748;2022-08-04T16:30:11;100047.91;;;33.16;27.95
72096;BME280;59968;51.084;16.748;2022-08-04T16:32:46;100044.30;;;33.09;27.83
72096;BME280;59968;51.084;16.748;2022-08-04T16:35:20;100048.14;;;33.04;27.73
72096;BME280;59968;51.084;16.748;2022-08-04T16:37:52;100044.12;;;32.98;28.18
72096;BME280;59968;51.084;16.748;2022-08-04T16:40:35;100046.91;;;32.94;28.31
72096;BME280;59968;51.084;16.748;2022-08-04T16:43:17;100041.20;;;32.89;28.32
72096;BME280;59968;51.084;16.748;2022-08-04T16:46:02;100041.11;;;32.83;28.26
72096;BME280;59968;51.084;16.748;2022-08-04T16:48:34;100039.16;;;32.77;28.26
72096;BME280;59968;51.084;16.748;2022-08-04T16:51:05;100036.39;;;32.71;28.21
72096;BME280;59968;51.084;16.748;2022-08-04T16:53:40;100034.48;;;32.65;28.85
72096;BME280;59968;51.084;16.748;2022-08-04T16:56:27;100033.60;;;32.59;28.34
72096;BME280;59968;51.084;16.748;2022-08-04T16:59:12;100032.39;;;32.51;28.48
72096;BME280;59968;51.084;16.748;2022-08-04T17:01:51;100026.52;;;32.42;28.57
72096;BME280;59968;51.084;16.748;2022-08-04T17:04:31;100034.39;;;32.39;28.92
72096;BME280;59968;51.084;16.748;2022-08-04T17:07:03;100030.09;;;32.33;29.19
72096;BME280;59968;51.084;16.748;2022-08-04T17:09:32;100032.91;;;32.28;28.95
72096;BME280;59968;51.084;16.748;2022-08-04T17:12:02;100032.16;;;32.20;29.14
72096;BME280;59968;51.084;16.748;2022-08-04T17:14:31;100035.45;;;32.15;29.25
72096;BME280;59968;51.084;16.748;2022-08-04T17:17:02;100031.65;;;32.11;29.68
72096;BME280;59968;51.084;16.748;2022-08-04T17:19:38;100030.96;;;32.06;29.94
72096;BME280;59968;51.084;16.748;2022-08-04T17:22:19;100033.23;;;32.00;29.93
72096;BME280;59968;51.084;16.748;2022-08-04T17:24:48;100034.19;;;31.94;30.39
72096;BME280;59968;51.084;16.748;2022-08-04T17:27:19;100034.09;;;31.88;30.61
72096;BME280;59968;51.084;16.748;2022-08-04T17:30:26;100033.26;;;31.82;30.69
72096;BME280;59968;51.084;16.748;2022-08-04T17:32:56;100040.67;;;31.76;30.96
72096;BME280;59968;51.084;16.748;2022-08-04T17:35:25;100044.61;;;31.70;31.47
72096;BME280;59968;51.084;16.748;2022-08-04T17:38:08;100041.75;;;31.64;31.66
72096;BME280;59968;51.084;16.748;2022-08-04T17:40:57;100036.80;;;31.58;31.39
72096;BME280;59968;51.084;16.748;2022-08-04T17:43:51;100032.48;;;31.50;31.49
72096;BME280;59968;51.084;16.748;2022-08-04T17:51:57;100036.84;;;31.34;32.19
72096;BME280;59968;51.084;16.748;2022-08-04T17:54:36;100036.05;;;31.28;32.56
72096;BME280;59968;51.084;16.748;2022-08-04T17:57:14;100039.04;;;31.24;32.36
72096;BME280;59968;51.084;16.748;2022-08-04T17:59:51;100033.25;;;31.20;32.48
72096;BME280;59968;51.084;16.748;2022-08-04T18:02:29;100032.91;;;31.22;32.76
72096;BME280;59968;51.084;16.748;2022-08-04T18:05:02;100037.79;;;31.32;32.79
72096;BME280;59968;51.084;16.748;2022-08-04T18:07:41;100033.29;;;31.73;32.59
72096;BME280;59968;51.084;16.748;2022-08-04T18:10:40;100036.19;;;32.34;32.08
72096;BME280;59968;51.084;16.748;2022-08-04T18:13:24;100036.14;;;32.78;31.70
72096;BME280;59968;51.084;16.748;2022-08-04T18:16:04;100038.02;;;32.91;31.54